sensor_id;sensor_type;location;lat;lon;timestamp;pressure;altitude;pressure_sealevel;temperature;humidity
48622;BME280;34421;48.944;9.460;2023-06-26T00:01:30;98427.91;;;19.34;53.42
48622;BME280;34421;48.944;9.460;2023-06-26T00:03:59;98428.44;;;19.31;53.51
48622;BME280;34421;48.944;9.460;2023-06-26T00:06:25;98428.97;;;19.28;53.06
48622;BME280;34421;48.944;9.460;2023-06-26T00:08:52;98427.34;;;19.22;52.94
48622;BME280;34421;48.944;9.460;2023-06-26T00:11:19;98436.00;;;19.19;52.89
48622;BME280;34421;48.944;9.460;2023-06-26T00:13:44;98440.81;;;19.12;53.19
48622;BME280;34421;48.944;9.460;2023-06-26T00:16:09;98441.38;;;19.14;53.10
48622;BME280;34421;48.944;9.460;2023-06-26T00:18:35;98436.50;;;19.11;53.34
48622;BME280;34421;48.944;9.460;2023-06-26T00:21:00;98438.94;;;19.07;53.77
48622;BME280;34421;48.944;9.460;2023-06-26T00:23:25;98435.97;;;19.04;54.24
48622;BME280;34421;48.944;9.460;2023-06-26T00:25:52;98434.59;;;19.06;53.81
48622;BME280;34421;48.944;9.460;2023-06-26T00:28:20;98440.25;;;19.05;54.04
48622;BME280;34421;48.944;9.460;2023-06-26T00:30:48;98446.19;;;19.02;53.98
48622;BME280;34421;48.944;9.460;2023-06-26T00:33:13;98444.06;;;19.04;54.42
48622;BME280;34421;48.944;9.460;2023-06-26T00:35:39;98451.31;;;18.98;54.28
48622;BME280;34421;48.944;9.460;2023-06-26T00:38:04;98442.66;;;18.91;53.95
48622;BME280;34421;48.944;9.460;2023-06-26T00:40:29;98441.06;;;18.95;54.44
48622;BME280;34421;48.944;9.460;2023-06-26T00:42:55;98448.03;;;18.91;54.99
48622;BME280;34421;48.944;9.460;2023-06-26T00:45:20;98444.00;;;18.83;54.90
48622;BME280;34421;48.944;9.460;2023-06-26T00:47:46;98447.22;;;18.85;54.57
48622;BME280;34421;48.944;9.460;2023-06-26T00:50:12;98443.16;;;18.78;55.15
48622;BME280;34421;48.944;9.460;2023-06-26T00:52:38;98447.19;;;18.75;55.10
48622;BME280;34421;48.944;9.460;2023-06-26T00:55:04;98448.78;;;18.71;55.12
48622;BME280;34421;48.944;9.460;2023-06-26T00:57:33;98445.25;;;18.65;54.82
48622;BME280;34421;48.944;9.460;2023-06-26T00:59:59;98440.63;;;18.61;55.10
48622;BME280;34421;48.944;9.460;2023-06-26T01:02:25;98442.75;;;18.59;55.63
48622;BME280;34421;48.944;9.460;2023-06-26T01:04:58;98437.38;;;18.54;55.50
48622;BME280;34421;48.944;9.460;2023-06-26T01:07:24;98436.78;;;18.47;55.45
48622;BME280;34421;48.944;9.460;2023-06-26T01:09:49;98435.13;;;18.40;55.07
48622;BME280;34421;48.944;9.460;2023-06-26T01:12:15;98430.25;;;18.32;55.29
48622;BME280;34421;48.944;9.460;2023-06-26T01:14:40;98430.75;;;18.29;55.41
48622;BME280;34421;48.944;9.460;2023-06-26T01:17:07;98431.56;;;18.25;55.06
48622;BME280;34421;48.944;9.460;2023-06-26T01:19:33;98436.69;;;18.31;55.02
48622;BME280;34421;48.944;9.460;2023-06-26T01:24:44;98433.44;;;18.29;55.91
48622;BME280;34421;48.944;9.460;2023-06-26T01:27:10;98428.28;;;18.22;56.08
48622;BME280;34421;48.944;9.460;2023-06-26T01:29:37;98419.94;;;18.19;55.64
48622;BME280;34421;48.944;9.460;2023-06-26T01:32:03;98421.78;;;18.13;56.24
48622;BME280;34421;48.944;9.460;2023-06-26T01:34:29;98419.03;;;18.08;56.42
48622;BME280;34421;48.944;9.460;2023-06-26T01:36:54;98414.16;;;18.00;56.13
48622;BME280;34421;48.944;9.460;2023-06-26T01:39:20;98410.88;;;17.93;56.54
48622;BME280;34421;48.944;9.460;2023-06-26T01:41:45;98406.56;;;17.92;56.89
48622;BME280;34421;48.944;9.460;2023-06-26T01:49:28;98414.31;;;17.83;56.69
48622;BME280;34421;48.944;9.460;2023-06-26T01:54:59;98410.78;;;17.77;57.04
48622;BME280;34421;48.944;9.460;2023-06-26T01:57:29;98410.69;;;17.72;57.23
48622;BME280;34421;48.944;9.460;2023-06-26T01:59:56;98409.94;;;17.77;57.14
48622;BME280;34421;48.944;9.460;2023-06-26T02:02:25;98407.84;;;17.79;57.27
48622;BME280;34421;48.944;9.460;2023-06-26T02:04:51;98410.97;;;17.71;57.48
48622;BME280;34421;48.944;9.460;2023-06-26T02:07:16;98409.88;;;17.67;57.49
48622;BME280;34421;48.944;9.460;2023-06-26T02:09:42;98410.63;;;17.62;57.75
48622;BME280;34421;48.944;9.460;2023-06-26T02:12:08;98402.25;;;17.59;57.17
48622;BME280;34421;48.944;9.460;2023-06-26T02:14:34;98406.56;;;17.60;57.27
48622;BME280;34421;48.944;9.460;2023-06-26T02:16:59;98409.81;;;17.62;58.04
48622;BME280;34421;48.944;9.460;2023-06-26T02:19:25;98411.38;;;17.58;57.73
48622;BME280;34421;48.944;9.460;2023-06-26T02:21:53;98406.84;;;17.58;57.76
48622;BME280;34421;48.944;9.460;2023-06-26T02:24:18;98401.97;;;17.55;58.02
48622;BME280;34421;48.944;9.460;2023-06-26T02:26:44;98411.59;;;17.51;57.86
48622;BME280;34421;48.944;9.460;2023-06-26T02:29:09;98405.94;;;17.47;58.14
48622;BME280;34421;48.944;9.460;2023-06-26T02:31:34;98403.19;;;17.42;58.27
48622;BME280;34421;48.944;9.460;2023-06-26T02:34:00;98408.03;;;17.40;58.41
48622;BME280;34421;48.944;9.460;2023-06-26T02:36:25;98413.94;;;17.37;58.79
48622;BME280;34421;48.944;9.460;2023-06-26T02:38:50;98413.38;;;17.35;58.52
48622;BME280;34421;48.944;9.460;2023-06-26T02:41:16;98419.50;;;17.30;58.82
48622;BME280;34421;48.944;9.460;2023-06-26T02:43:41;98411.94;;;17.27;58.69
48622;BME280;34421;48.944;9.460;2023-06-26T02:46:06;98417.03;;;17.24;58.47
48622;BME280;34421;48.944;9.460;2023-06-26T02:48:32;98413.53;;;17.23;58.77
48622;BME280;34421;48.944;9.460;2023-06-26T02:50:58;98413.22;;;17.20;59.21
48622;BME280;34421;48.944;9.460;2023-06-26T02:53:24;98405.66;;;17.17;58.78
48622;BME280;34421;48.944;9.460;2023-06-26T02:55:49;98395.94;;;17.11;58.67
48622;BME280;34421;48.944;9.460;2023-06-26T02:58:15;98411.00;;;17.12;58.94
48622;BME280;34421;48.944;9.460;2023-06-26T03:00:40;98399.16;;;17.13;58.98
48622;BME280;34421;48.944;9.460;2023-06-26T03:03:07;98406.69;;;17.11;59.33
48622;BME280;34421;48.944;9.460;2023-06-26T03:05:32;98407.19;;;17.07;59.59
48622;BME280;34421;48.944;9.460;2023-06-26T03:07:58;98406.34;;;17.07;59.44
48622;BME280;34421;48.944;9.460;2023-06-26T03:10:23;98404.97;;;16.99;59.40
48622;BME280;34421;48.944;9.460;2023-06-26T03:12:48;98398.44;;;16.95;59.58
48622;BME280;34421;48.944;9.460;2023-06-26T03:15:14;98413.47;;;16.91;60.09
48622;BME280;34421;48.944;9.460;2023-06-26T03:17:39;98404.53;;;16.85;60.81
48622;BME280;34421;48.944;9.460;2023-06-26T03:20:05;98409.03;;;16.80;60.11
48622;BME280;34421;48.944;9.460;2023-06-26T03:22:32;98412.22;;;16.77;60.71
48622;BME280;34421;48.944;9.460;2023-06-26T03:24:58;98399.25;;;16.74;60.44
48622;BME280;34421;48.944;9.460;2023-06-26T03:27:23;98413.22;;;16.71;60.58
48622;BME280;34421;48.944;9.460;2023-06-26T03:29:48;98404.09;;;16.72;60.42
48622;BME280;34421;48.944;9.460;2023-06-26T03:32:14;98406.22;;;16.70;61.03
48622;BME280;34421;48.944;9.460;2023-06-26T03:34:39;98404.34;;;16.70;60.85
48622;BME280;34421;48.944;9.460;2023-06-26T03:37:04;98399.22;;;16.69;60.69
48622;BME280;34421;48.944;9.460;2023-06-26T03:39:30;98409.41;;;16.67;60.89
48622;BME280;34421;48.944;9.460;2023-06-26T03:41:55;98409.16;;;16.68;61.17
48622;BME280;34421;48.944;9.460;2023-06-26T03:44:25;98413.72;;;16.68;61.30
48622;BME280;34421;48.944;9.460;2023-06-26T03:46:50;98412.66;;;16.69;61.41
48622;BME280;34421;48.944;9.460;2023-06-26T03:49:16;98411.03;;;16.68;61.28
48622;BME280;34421;48.944;9.460;2023-06-26T03:51:41;98414.50;;;16.68;61.10
48622;BME280;34421;48.944;9.460;2023-06-26T03:54:06;98413.72;;;16.68;60.79
48622;BME280;34421;48.944;9.460;2023-06-26T03:56:32;98413.47;;;16.69;60.74
48622;BME280;34421;48.944;9.460;2023-06-26T03:58:57;98422.66;;;16.73;61.02
48622;BME280;34421;48.944;9.460;2023-06-26T04:01:23;98425.66;;;16.77;61.25
48622;BME280;34421;48.944;9.460;2023-06-26T04:03:48;98421.94;;;16.78;61.02
48622;BME280;34421;48.944;9.460;2023-06-26T04:06:13;98423.56;;;16.79;61.45
48622;BME280;34421;48.944;9.460;2023-06-26T04:08:39;98430.31;;;16.81;60.46
48622;BME280;34421;48.944;9.460;2023-06-26T04:11:04;98426.03;;;16.85;61.09
48622;BME280;34421;48.944;9.460;2023-06-26T04:13:29;98424.72;;;16.88;60.90
48622;BME280;34421;48.944;9.460;2023-06-26T04:15:55;98425.31;;;16.90;60.32
48622;BME280;34421;48.944;9.460;2023-06-26T04:18:20;98429.91;;;16.95;60.39
48622;BME280;34421;48.944;9.460;2023-06-26T04:21:12;98435.59;;;16.98;60.24
48622;BME280;34421;48.944;9.460;2023-06-26T04:23:39;98436.16;;;17.00;61.11
48622;BME280;34421;48.944;9.460;2023-06-26T04:26:06;98439.97;;;17.04;60.25
48622;BME280;34421;48.944;9.460;2023-06-26T04:28:33;98437.88;;;17.12;60.19
48622;BME280;34421;48.944;9.460;2023-06-26T04:30:59;98434.19;;;17.18;60.48
48622;BME280;34421;48.944;9.460;2023-06-26T04:33:25;98436.13;;;17.22;60.38
48622;BME280;34421;48.944;9.460;2023-06-26T04:35:51;98430.53;;;17.29;60.50
48622;BME280;34421;48.944;9.460;2023-06-26T04:38:16;98438.41;;;17.36;60.53
48622;BME280;34421;48.944;9.460;2023-06-26T04:40:41;98434.69;;;17.42;60.55
48622;BME280;34421;48.944;9.460;2023-06-26T04:43:07;98433.66;;;17.48;60.40
48622;BME280;34421;48.944;9.460;2023-06-26T04:45:32;98431.06;;;17.58;59.61
48622;BME280;34421;48.944;9.460;2023-06-26T04:47:57;98423.88;;;17.69;60.15
48622;BME280;34421;48.944;9.460;2023-06-26T04:50:24;98428.22;;;17.75;59.86
48622;BME280;34421;48.944;9.460;2023-06-26T04:52:50;98428.84;;;17.82;59.48
48622;BME280;34421;48.944;9.460;2023-06-26T04:55:15;98425.16;;;17.93;60.04
48622;BME280;34421;48.944;9.460;2023-06-26T04:57:40;98424.13;;;17.99;59.78
48622;BME280;34421;48.944;9.460;2023-06-26T05:00:06;98425.78;;;18.06;59.51
48622;BME280;34421;48.944;9.460;2023-06-26T05:02:34;98422.59;;;18.14;59.58
48622;BME280;34421;48.944;9.460;2023-06-26T05:05:00;98418.31;;;18.23;60.02
48622;BME280;34421;48.944;9.460;2023-06-26T05:07:25;98418.41;;;18.33;58.94
48622;BME280;34421;48.944;9.460;2023-06-26T05:09:50;98410.63;;;18.42;59.19
48622;BME280;34421;48.944;9.460;2023-06-26T05:12:15;98416.84;;;18.53;59.44
48622;BME280;34421;48.944;9.460;2023-06-26T05:14:41;98415.25;;;18.62;58.99
48622;BME280;34421;48.944;9.460;2023-06-26T05:17:06;98417.47;;;18.70;58.07
48622;BME280;34421;48.944;9.460;2023-06-26T05:19:31;98408.09;;;18.78;58.28
48622;BME280;34421;48.944;9.460;2023-06-26T05:21:57;98413.50;;;18.88;58.36
48622;BME280;34421;48.944;9.460;2023-06-26T05:24:24;98421.63;;;18.98;58.09
48622;BME280;34421;48.944;9.460;2023-06-26T05:26:50;98415.72;;;19.11;57.90
48622;BME280;34421;48.944;9.460;2023-06-26T05:29:16;98419.25;;;19.22;58.03
48622;BME280;34421;48.944;9.460;2023-06-26T05:31:41;98419.81;;;19.34;58.22
48622;BME280;34421;48.944;9.460;2023-06-26T05:34:07;98420.34;;;19.47;57.89
48622;BME280;34421;48.944;9.460;2023-06-26T05:36:34;98419.81;;;19.60;57.66
48622;BME280;34421;48.944;9.460;2023-06-26T05:39:00;98413.91;;;19.73;57.19
48622;BME280;34421;48.944;9.460;2023-06-26T05:41:25;98419.84;;;19.86;56.98
48622;BME280;34421;48.944;9.460;2023-06-26T05:43:51;98421.72;;;20.00;56.60
48622;BME280;34421;48.944;9.460;2023-06-26T05:46:19;98426.56;;;20.14;56.58
48622;BME280;34421;48.944;9.460;2023-06-26T05:48:45;98423.81;;;20.29;55.89
48622;BME280;34421;48.944;9.460;2023-06-26T05:51:10;98424.31;;;20.41;56.22
48622;BME280;34421;48.944;9.460;2023-06-26T05:53:36;98419.69;;;20.57;55.28
48622;BME280;34421;48.944;9.460;2023-06-26T05:56:01;98418.00;;;20.71;55.89
48622;BME280;34421;48.944;9.460;2023-06-26T05:58:27;98425.25;;;20.86;55.83
48622;BME280;34421;48.944;9.460;2023-06-26T06:00:53;98421.09;;;21.04;55.16
48622;BME280;34421;48.944;9.460;2023-06-26T06:03:18;98425.28;;;21.21;54.58
48622;BME280;34421;48.944;9.460;2023-06-26T06:05:43;98416.81;;;21.37;53.86
48622;BME280;34421;48.944;9.460;2023-06-26T06:08:09;98422.09;;;21.58;53.77
48622;BME280;34421;48.944;9.460;2023-06-26T06:10:34;98420.56;;;21.81;52.82
48622;BME280;34421;48.944;9.460;2023-06-26T06:13:00;98414.97;;;22.73;51.55
48622;BME280;34421;48.944;9.460;2023-06-26T06:15:25;98409.69;;;25.29;46.44
48622;BME280;34421;48.944;9.460;2023-06-26T06:17:51;98410.66;;;28.31;40.04
48622;BME280;34421;48.944;9.460;2023-06-26T06:20:17;98405.22;;;31.06;36.39
48622;BME280;34421;48.944;9.460;2023-06-26T06:22:45;98407.16;;;33.01;32.40
48622;BME280;34421;48.944;9.460;2023-06-26T06:25:10;98396.38;;;34.62;31.27
48622;BME280;34421;48.944;9.460;2023-06-26T06:27:35;98396.72;;;36.70;27.28
48622;BME280;34421;48.944;9.460;2023-06-26T06:30:01;98388.59;;;38.47;25.28
48622;BME280;34421;48.944;9.460;2023-06-26T06:32:26;98373.31;;;39.19;25.35
48622;BME280;34421;48.944;9.460;2023-06-26T06:34:51;98385.41;;;41.14;22.24
48622;BME280;34421;48.944;9.460;2023-06-26T06:37:17;98378.03;;;42.40;20.61
48622;BME280;34421;48.944;9.460;2023-06-26T06:39:42;98382.41;;;42.84;18.87
48622;BME280;34421;48.944;9.460;2023-06-26T06:42:07;98383.31;;;43.57;18.31
48622;BME280;34421;48.944;9.460;2023-06-26T06:44:33;98375.84;;;44.52;17.55
48622;BME280;34421;48.944;9.460;2023-06-26T06:46:58;98376.56;;;45.15;15.75
48622;BME280;34421;48.944;9.460;2023-06-26T06:49:24;98383.06;;;45.79;15.05
48622;BME280;34421;48.944;9.460;2023-06-26T06:51:49;98386.53;;;46.09;14.33
48622;BME280;34421;48.944;9.460;2023-06-26T06:54:15;98385.31;;;47.14;14.35
48622;BME280;34421;48.944;9.460;2023-06-26T06:56:41;98391.00;;;46.45;14.86
48622;BME280;34421;48.944;9.460;2023-06-26T06:59:08;98386.09;;;44.75;15.76
48622;BME280;34421;48.944;9.460;2023-06-26T07:01:33;98392.16;;;44.41;16.32
48622;BME280;34421;48.944;9.460;2023-06-26T07:03:59;98383.06;;;44.21;15.76
48622;BME280;34421;48.944;9.460;2023-06-26T07:06:24;98385.34;;;44.88;14.70
48622;BME280;34421;48.944;9.460;2023-06-26T07:08:49;98392.16;;;45.83;14.15
48622;BME280;34421;48.944;9.460;2023-06-26T07:11:15;98386.09;;;46.93;13.23
48622;BME280;34421;48.944;9.460;2023-06-26T07:13:40;98386.47;;;47.48;13.18
48622;BME280;34421;48.944;9.460;2023-06-26T07:16:05;98381.97;;;48.00;13.06
48622;BME280;34421;48.944;9.460;2023-06-26T07:18:31;98379.25;;;48.46;12.98
48622;BME280;34421;48.944;9.460;2023-06-26T07:20:56;98387.44;;;48.99;12.47
48622;BME280;34421;48.944;9.460;2023-06-26T07:23:21;98379.78;;;49.52;11.86
48622;BME280;34421;48.944;9.460;2023-06-26T07:25:47;98378.69;;;49.49;11.92
48622;BME280;34421;48.944;9.460;2023-06-26T07:28:12;98390.09;;;49.21;12.04
48622;BME280;34421;48.944;9.460;2023-06-26T07:30:38;98388.13;;;49.46;11.80
48622;BME280;34421;48.944;9.460;2023-06-26T07:33:03;98379.44;;;48.98;11.62
48622;BME280;34421;48.944;9.460;2023-06-26T07:35:28;98386.25;;;49.43;11.93
48622;BME280;34421;48.944;9.460;2023-06-26T07:37:54;98394.63;;;47.86;12.86
48622;BME280;34421;48.944;9.460;2023-06-26T07:40:19;98401.28;;;46.60;13.74
48622;BME280;34421;48.944;9.460;2023-06-26T07:42:45;98393.38;;;46.33;13.93
48622;BME280;34421;48.944;9.460;2023-06-26T07:45:11;98386.69;;;48.03;12.59
48622;BME280;34421;48.944;9.460;2023-06-26T07:47:40;98388.22;;;48.91;12.03
48622;BME280;34421;48.944;9.460;2023-06-26T07:50:06;98395.72;;;47.80;13.06
48622;BME280;34421;48.944;9.460;2023-06-26T07:52:32;98390.72;;;47.84;12.38
48622;BME280;34421;48.944;9.460;2023-06-26T07:54:57;98385.16;;;49.40;11.47
48622;BME280;34421;48.944;9.460;2023-06-26T07:57:23;98387.25;;;49.12;11.71
48622;BME280;34421;48.944;9.460;2023-06-26T07:59:48;98385.38;;;49.70;11.11
48622;BME280;34421;48.944;9.460;2023-06-26T08:02:13;98391.19;;;49.76;10.61
48622;BME280;34421;48.944;9.460;2023-06-26T08:04:39;98379.88;;;49.24;11.87
48622;BME280;34421;48.944;9.460;2023-06-26T08:07:04;98399.47;;;45.81;13.68
48622;BME280;34421;48.944;9.460;2023-06-26T08:09:30;98386.47;;;44.90;14.76
48622;BME280;34421;48.944;9.460;2023-06-26T08:11:56;98389.78;;;47.02;12.82
48622;BME280;34421;48.944;9.460;2023-06-26T08:14:22;98376.63;;;47.53;12.53
48622;BME280;34421;48.944;9.460;2023-06-26T08:16:47;98383.78;;;48.25;11.90
48622;BME280;34421;48.944;9.460;2023-06-26T08:19:14;98390.00;;;46.73;13.05
48622;BME280;34421;48.944;9.460;2023-06-26T08:21:43;98389.66;;;43.01;15.56
48622;BME280;34421;48.944;9.460;2023-06-26T08:24:09;98389.78;;;40.32;18.10
48622;BME280;34421;48.944;9.460;2023-06-26T08:26:35;98394.59;;;39.69;18.67
48622;BME280;34421;48.944;9.460;2023-06-26T08:29:01;98389.72;;;41.19;17.56
48622;BME280;34421;48.944;9.460;2023-06-26T08:31:33;98386.56;;;40.38;17.94
48622;BME280;34421;48.944;9.460;2023-06-26T08:34:00;98389.28;;;39.12;19.14
48622;BME280;34421;48.944;9.460;2023-06-26T08:36:25;98386.81;;;37.46;21.09
48622;BME280;34421;48.944;9.460;2023-06-26T08:38:50;98386.06;;;37.52;21.23
48622;BME280;34421;48.944;9.460;2023-06-26T08:41:16;98382.56;;;37.66;20.77
48622;BME280;34421;48.944;9.460;2023-06-26T08:43:41;98371.88;;;38.04;20.49
48622;BME280;34421;48.944;9.460;2023-06-26T08:46:07;98391.47;;;37.13;21.25
48622;BME280;34421;48.944;9.460;2023-06-26T08:48:32;98387.88;;;36.50;22.11
48622;BME280;34421;48.944;9.460;2023-06-26T08:51:12;98385.03;;;35.98;22.79
48622;BME280;34421;48.944;9.460;2023-06-26T08:53:49;98392.28;;;34.79;24.30
48622;BME280;34421;48.944;9.460;2023-06-26T08:56:17;98392.91;;;33.53;25.98
48622;BME280;34421;48.944;9.460;2023-06-26T08:58:43;98387.91;;;33.82;26.13
48622;BME280;34421;48.944;9.460;2023-06-26T09:01:09;98377.25;;;34.53;24.81
48622;BME280;34421;48.944;9.460;2023-06-26T09:03:35;98386.19;;;34.43;25.28
48622;BME280;34421;48.944;9.460;2023-06-26T09:06:01;98378.41;;;35.69;23.87
48622;BME280;34421;48.944;9.460;2023-06-26T09:08:26;98378.56;;;34.59;25.21
48622;BME280;34421;48.944;9.460;2023-06-26T09:10:52;98384.81;;;34.83;25.12
48622;BME280;34421;48.944;9.460;2023-06-26T09:13:18;98387.03;;;34.70;25.00
48622;BME280;34421;48.944;9.460;2023-06-26T09:15:44;98395.13;;;33.67;26.43
48622;BME280;34421;48.944;9.460;2023-06-26T09:18:10;98383.34;;;34.13;26.36
48622;BME280;34421;48.944;9.460;2023-06-26T09:20:36;98378.38;;;35.32;24.57
48622;BME280;34421;48.944;9.460;2023-06-26T09:23:02;98376.31;;;34.42;25.82
48622;BME280;34421;48.944;9.460;2023-06-26T09:25:28;98379.88;;;33.73;26.88
48622;BME280;34421;48.944;9.460;2023-06-26T09:27:54;98372.75;;;33.72;27.09
48622;BME280;34421;48.944;9.460;2023-06-26T09:30:20;98369.84;;;36.26;24.31
48622;BME280;34421;48.944;9.460;2023-06-26T09:32:46;98378.88;;;37.40;22.60
48622;BME280;34421;48.944;9.460;2023-06-26T09:35:11;98378.31;;;35.58;24.40
48622;BME280;34421;48.944;9.460;2023-06-26T09:37:37;98367.66;;;37.12;23.07
48622;BME280;34421;48.944;9.460;2023-06-26T09:40:03;98378.59;;;36.83;23.24
48622;BME280;34421;48.944;9.460;2023-06-26T09:42:30;98373.97;;;36.02;23.70
48622;BME280;34421;48.944;9.460;2023-06-26T09:44:55;98360.34;;;35.11;25.16
48622;BME280;34421;48.944;9.460;2023-06-26T09:47:21;98382.06;;;33.06;27.89
48622;BME280;34421;48.944;9.460;2023-06-26T09:49:47;98373.88;;;32.94;27.82
48622;BME280;34421;48.944;9.460;2023-06-26T09:52:16;98368.72;;;32.57;29.41
48622;BME280;34421;48.944;9.460;2023-06-26T09:54:45;98368.00;;;32.60;29.32
48622;BME280;34421;48.944;9.460;2023-06-26T09:57:13;98369.09;;;32.55;29.39
48622;BME280;34421;48.944;9.460;2023-06-26T09:59:39;98359.97;;;33.45;27.72
48622;BME280;34421;48.944;9.460;2023-06-26T10:02:05;98360.84;;;33.49;27.56
48622;BME280;34421;48.944;9.460;2023-06-26T10:04:32;98368.41;;;31.95;29.67
48622;BME280;34421;48.944;9.460;2023-06-26T10:06:58;98362.94;;;31.83;30.48
48622;BME280;34421;48.944;9.460;2023-06-26T10:09:27;98369.38;;;32.03;29.44
48622;BME280;34421;48.944;9.460;2023-06-26T10:12:29;98365.41;;;30.51;32.29
48622;BME280;34421;48.944;9.460;2023-06-26T10:14:56;98362.50;;;30.84;31.82
48622;BME280;34421;48.944;9.460;2023-06-26T10:17:25;98366.19;;;30.88;32.05
48622;BME280;34421;48.944;9.460;2023-06-26T10:19:53;98366.34;;;31.07;31.32
48622;BME280;34421;48.944;9.460;2023-06-26T10:22:21;98368.34;;;31.79;30.33
48622;BME280;34421;48.944;9.460;2023-06-26T10:24:50;98365.16;;;33.27;28.15
48622;BME280;34421;48.944;9.460;2023-06-26T10:29:52;98375.84;;;31.94;29.68
48622;BME280;34421;48.944;9.460;2023-06-26T10:32:20;98375.66;;;32.03;29.58
48622;BME280;34421;48.944;9.460;2023-06-26T10:34:46;98376.19;;;32.91;28.81
48622;BME280;34421;48.944;9.460;2023-06-26T10:37:12;98378.22;;;34.38;26.69
48622;BME280;34421;48.944;9.460;2023-06-26T10:40:04;98382.69;;;32.32;29.73
48622;BME280;34421;48.944;9.460;2023-06-26T10:42:37;98379.66;;;30.93;31.10
48622;BME280;34421;48.944;9.460;2023-06-26T10:45:16;98385.84;;;30.04;32.83
48622;BME280;34421;48.944;9.460;2023-06-26T10:47:46;98382.72;;;29.27;34.05
48622;BME280;34421;48.944;9.460;2023-06-26T10:53:22;98392.63;;;29.40;34.84
48622;BME280;34421;48.944;9.460;2023-06-26T10:56:03;98383.66;;;28.89;35.63
48622;BME280;34421;48.944;9.460;2023-06-26T10:58:34;98388.09;;;28.94;35.98
48622;BME280;34421;48.944;9.460;2023-06-26T11:04:06;98371.09;;;29.96;34.13
48622;BME280;34421;48.944;9.460;2023-06-26T11:06:33;98373.78;;;30.30;33.70
48622;BME280;34421;48.944;9.460;2023-06-26T11:14:30;98382.59;;;29.57;35.02
48622;BME280;34421;48.944;9.460;2023-06-26T11:16:56;98392.63;;;29.19;36.13
48622;BME280;34421;48.944;9.460;2023-06-26T11:19:22;98393.84;;;28.59;37.34
48622;BME280;34421;48.944;9.460;2023-06-26T11:21:50;98394.75;;;27.69;39.01
48622;BME280;34421;48.944;9.460;2023-06-26T11:24:16;98395.06;;;27.67;39.36
48622;BME280;34421;48.944;9.460;2023-06-26T11:26:43;98392.00;;;27.86;39.89
48622;BME280;34421;48.944;9.460;2023-06-26T11:29:10;98400.53;;;27.85;39.30
48622;BME280;34421;48.944;9.460;2023-06-26T11:31:37;98389.63;;;27.59;40.22
48622;BME280;34421;48.944;9.460;2023-06-26T11:34:05;98386.25;;;27.44;40.68
48622;BME280;34421;48.944;9.460;2023-06-26T11:36:31;98388.19;;;27.18;41.53
48622;BME280;34421;48.944;9.460;2023-06-26T11:38:59;98394.66;;;27.22;42.39
48622;BME280;34421;48.944;9.460;2023-06-26T11:41:27;98401.50;;;27.54;41.45
48622;BME280;34421;48.944;9.460;2023-06-26T11:43:54;98407.03;;;27.19;42.18
48622;BME280;34421;48.944;9.460;2023-06-26T11:46:21;98404.25;;;27.80;41.21
48622;BME280;34421;48.944;9.460;2023-06-26T11:48:47;98406.03;;;27.50;42.50
48622;BME280;34421;48.944;9.460;2023-06-26T11:51:13;98409.91;;;27.49;41.38
48622;BME280;34421;48.944;9.460;2023-06-26T11:53:41;98414.69;;;27.87;41.07
48622;BME280;34421;48.944;9.460;2023-06-26T11:56:10;98409.91;;;27.49;42.04
48622;BME280;34421;48.944;9.460;2023-06-26T11:58:37;98398.72;;;27.98;41.85
48622;BME280;34421;48.944;9.460;2023-06-26T12:01:17;98408.66;;;28.11;40.88
48622;BME280;34421;48.944;9.460;2023-06-26T12:03:43;98394.63;;;28.21;41.13
48622;BME280;34421;48.944;9.460;2023-06-26T12:06:11;98410.97;;;28.77;39.73
48622;BME280;34421;48.944;9.460;2023-06-26T12:08:37;98409.72;;;28.27;41.44
48622;BME280;34421;48.944;9.460;2023-06-26T12:11:02;98394.19;;;28.99;39.97
48622;BME280;34421;48.944;9.460;2023-06-26T12:13:29;98407.78;;;29.38;38.72
48622;BME280;34421;48.944;9.460;2023-06-26T12:15:54;98408.19;;;28.85;40.21
48622;BME280;34421;48.944;9.460;2023-06-26T12:18:20;98402.47;;;28.31;40.61
48622;BME280;34421;48.944;9.460;2023-06-26T12:20:46;98414.47;;;28.56;41.17
48622;BME280;34421;48.944;9.460;2023-06-26T12:23:12;98418.50;;;28.12;41.92
48622;BME280;34421;48.944;9.460;2023-06-26T12:25:38;98426.78;;;27.51;43.27
48622;BME280;34421;48.944;9.460;2023-06-26T12:28:17;98408.63;;;27.20;43.92
48622;BME280;34421;48.944;9.460;2023-06-26T12:30:47;98416.34;;;27.27;44.51
48622;BME280;34421;48.944;9.460;2023-06-26T12:33:14;98415.06;;;27.16;44.38
48622;BME280;34421;48.944;9.460;2023-06-26T12:35:40;98428.41;;;27.26;45.50
48622;BME280;34421;48.944;9.460;2023-06-26T12:38:07;98417.75;;;27.59;43.54
48622;BME280;34421;48.944;9.460;2023-06-26T12:40:35;98415.84;;;27.42;44.84
48622;BME280;34421;48.944;9.460;2023-06-26T12:43:02;98425.63;;;27.87;44.39
48622;BME280;34421;48.944;9.460;2023-06-26T12:45:37;98417.91;;;28.74;41.59
48622;BME280;34421;48.944;9.460;2023-06-26T12:48:12;98414.16;;;28.49;42.56
48622;BME280;34421;48.944;9.460;2023-06-26T12:50:43;98405.97;;;29.00;41.36
48622;BME280;34421;48.944;9.460;2023-06-26T12:53:09;98403.88;;;28.97;41.47
48622;BME280;34421;48.944;9.460;2023-06-26T12:55:36;98401.81;;;28.94;42.04
48622;BME280;34421;48.944;9.460;2023-06-26T12:58:01;98395.63;;;29.60;40.92
48622;BME280;34421;48.944;9.460;2023-06-26T13:00:26;98404.19;;;29.46;40.01
48622;BME280;34421;48.944;9.460;2023-06-26T13:02:52;98401.47;;;29.04;41.87
48622;BME280;34421;48.944;9.460;2023-06-26T13:05:17;98395.19;;;29.24;40.61
48622;BME280;34421;48.944;9.460;2023-06-26T13:07:42;98405.03;;;28.36;42.29
48622;BME280;34421;48.944;9.460;2023-06-26T13:10:08;98409.63;;;28.15;42.89
48622;BME280;34421;48.944;9.460;2023-06-26T13:12:33;98387.69;;;27.50;43.96
48622;BME280;34421;48.944;9.460;2023-06-26T13:14:59;98397.03;;;27.32;45.13
48622;BME280;34421;48.944;9.460;2023-06-26T13:17:24;98394.31;;;27.32;45.24
48622;BME280;34421;48.944;9.460;2023-06-26T13:19:50;98403.28;;;27.59;44.62
48622;BME280;34421;48.944;9.460;2023-06-26T13:22:15;98402.00;;;27.47;44.70